Aérodrome :
LOGIN :

S'inscrire | Disclaimer

   EN    FR    IT 

 










Légende :    VFR   VFR Marginal   IFR   IFR Intensif   IFR Très Intensif
Visi : 
Plafond : 
>= 8 km
>= 3000ft
5 à 8 km
1000 à 3000 ft
1500m à 5 km
500 à 1000 ft
800 à 1500m
200 à 500 ft
< 800m
< 200 ft
Symboles :   Orages  Brouillard  Fortes neiges  Fortes précipitations  Vent > 20 kt
SIGMETs :   Divers  Orages  Givrage  Turbulence  Onde Orograph.  Cendres Volcan.







- Altitude de l'aérodrome : 160 ft
- Code IATA : LRT
- Voir les cartes d'approche


LFRH - Lorient Lann Bihoue

DERNIER METAR :
  • 181830Z AUTO 15003KT 9999 BKN014 BKN021 OVC150 08/08 Q1018 BECMG 2000 BR SCT015 BKN040

METARs EXPIRÉS :
  • 181800Z AUTO 15003KT 9999 BKN014 BKN021 BKN033 09/08 Q1018 BECMG 2000 BR SCT015 BKN040
  • 181730Z AUTO VRB03KT 9999 BKN013 BKN020 BKN140 09/07 Q1018 BECMG 2000 BR SCT015 BKN040
  • 181700Z AUTO 20004KT 9999 FEW015 BKN130 09/07 Q1018 TEMPO BKN012TCU BECMG 2000 BR
  • 181630Z AUTO 21005KT 9999 FEW033 BKN120 10/07 Q1018 TEMPO BKN012TCU BECMG 2000 BR
  • 181600Z AUTO 21005KT 9999 FEW041 BKN170 10/07 Q1017 TEMPO 4000 -SHRA BKN012TCU

TAF TAF LFRH
Valide du 18 à 18h jusqu'au 19 à 18h UTC


181700Z 1818/1918 VRB03KT 9999 SCT015 BKN040
BECMG 1818/1820 2000 BR
BECMG 1822/1824 0500 FG VV///
BECMG 1906/1909 2000 BR
BECMG 1910/1912 9999 NSW SCT030
PROB30
TEMPO 1914/1918 BKN003
Pas de NOTAMs connus pour ce terrain.
1 SIGMET publié pour la FIR Brest (LFRR) :
 
Turbulence forte
LFRR SIGMET 1 VALID 181830/182100 LFPW
LFRR BREST FIR/UIR SEV TURB FCST WI N4430 W00545 - N4500 W00800 - N4745 W00630 - N4715 W00445 - N4430 W00545 FL180/280 MOV E 20KT NC=



MET'MAP, la Météo Aéronautique d'un coup d'oeil ! - Copyright ORBIFLY Décembre 2007 - Disclaimer

ORBIFLY MET'MAP TEAM :

Programmation & Développement : Alexandra Zaïnal
Conception & Développement : Baudouin d'Aumeries
Co-Programmation & Développement : Marc-Olivier Méhu
Soutien technique & logistique : Manuel Goepfert

Contact : metmap@orbifly.com




SOURCES & CREDITS :

   NOAA